Time;durP1;ratioP1;P1;durP2;ratioP2;P2;SDS_P1;SDS_P2;PMS_P1;PMS_P2;Temp;Humidity;BMP_temperature;BMP_pressure;BME280_temperature;BME280_humidity;BME280_pressure;Samples;Min_cycle;Max_cycle;Signal;HPM_P1;HPM_P2
2021/11/09 00:02:05;;;;;;;48.60;30.60;;;;;;;8.81;67.71;99738.83;211027;1332;138933;-60
2021/11/09 00:12:44;;;;;;;46.60;30.20;;;;;;;8.70;68.05;99739.30;211031;1335;138447;-60
2021/11/09 00:17:52;;;;;;;49.30;31.10;;;;;;;8.74;68.20;99743.38;211010;1331;138824;-57
2021/11/09 00:22:55;;;;;;;;;;;;;;;8.76;68.20;99748.23;211130;1337;139236;-59
2021/11/09 00:27:59;;;;;;;47.50;30.20;;;;;;;8.76;68.27;99753.89;211154;1338;124679;-58
2021/11/09 00:33:03;;;;;;;49.10;31.00;;;;;;;8.75;68.36;99752.16;211332;1331;139179;-60
2021/11/09 00:38:10;;;;;;;45.50;29.00;;;;;;;8.75;68.38;99754.98;211387;1331;138909;-58
2021/11/09 00:43:16;;;;;;;43.70;28.40;;;;;;;8.75;68.36;99757.65;211266;1336;138294;-58
2021/11/09 00:48:20;;;;;;;41.70;25.80;;;;;;;8.78;68.41;99760.91;211214;1334;139276;-57
2021/11/09 00:53:24;;;;;;;44.70;28.10;;;;;;;8.79;68.50;99758.04;211110;1337;139108;-58
2021/11/09 00:58:27;;;;;;;41.90;24.40;;;;;;;8.79;68.48;99759.59;211142;1335;138543;-59
2021/11/09 01:03:31;;;;;;;37.80;24.30;;;;;;;8.76;68.65;99755.13;210923;1338;138851;-57
2021/11/09 01:08:34;;;;;;;37.70;23.80;;;;;;;8.75;68.63;99757.31;211491;1329;139799;-57
2021/11/09 01:13:37;;;;;;;36.40;22.70;;;;;;;8.72;68.61;99757.45;211881;1329;138812;-55
2021/11/09 01:18:45;;;;;;;35.50;22.20;;;;;;;8.68;68.67;99757.78;211472;1330;139663;-55
2021/11/09 01:23:51;;;;;;;32.80;22.10;;;;;;;8.67;68.83;99764.38;211308;1332;139305;-55
2021/11/09 01:28:56;;;;;;;30.90;21.80;;;;;;;8.68;68.95;99763.27;211705;1331;139297;-59
2021/11/09 01:34:00;;;;;;;33.80;22.70;;;;;;;8.68;69.16;99761.11;211740;1326;139748;-58
2021/11/09 01:39:05;;;;;;;35.40;23.10;;;;;;;8.64;69.09;99769.11;211778;1333;140015;-57
2021/11/09 01:44:08;;;;;;;32.70;22.50;;;;;;;8.61;69.26;99772.05;211651;1326;138747;-59
2021/11/09 01:49:12;;;;;;;36.50;23.30;;;;;;;8.63;69.33;99770.73;211302;1335;140729;-56
2021/11/09 01:54:15;;;;;;;36.20;24.50;;;;;;;8.66;69.34;99773.06;211714;1332;139476;-59
2021/11/09 01:59:18;;;;;;;37.00;25.20;;;;;;;8.69;69.47;99775.96;212214;1330;138921;-58
2021/11/09 02:04:22;;;;;;;40.10;26.60;;;;;;;8.71;69.47;99784.16;212225;1332;139926;-56
2021/11/09 02:09:25;;;;;;;38.70;26.40;;;;;;;8.74;69.52;99788.46;211710;1329;140958;-58
2021/11/09 02:14:28;;;;;;;41.10;26.30;;;;;;;8.73;69.55;99789.05;211816;1329;138609;-58
2021/11/09 02:19:31;;;;;;;38.60;25.70;;;;;;;8.73;69.46;99785.52;211650;1334;140771;-57
2021/11/09 02:24:36;;;;;;;45.50;27.20;;;;;;;8.73;69.45;99791.88;211387;1336;139624;-56
2021/11/09 02:29:41;;;;;;;42.50;25.60;;;;;;;8.74;69.54;99789.52;211637;1334;139647;-58
2021/11/09 02:34:44;;;;;;;39.40;26.40;;;;;;;8.74;69.59;99796.24;211740;1328;138650;-55
2021/11/09 02:39:48;;;;;;;36.80;26.00;;;;;;;8.76;69.78;99805.38;211866;1326;139048;-58
2021/11/09 02:44:57;;;;;;;37.00;25.10;;;;;;;8.76;69.69;99811.92;211342;1330;142249;-57
2021/11/09 02:50:06;;;;;;;37.00;25.30;;;;;;;8.78;69.75;99818.75;211337;1329;140398;-58
2021/11/09 02:55:11;;;;;;;40.30;26.30;;;;;;;8.82;69.94;99820.17;211795;1328;139693;-57
2021/11/09 03:00:24;;;;;;;37.80;24.70;;;;;;;8.84;69.86;99814.80;211818;1329;138877;-58
2021/11/09 03:05:32;;;;;;;38.30;25.80;;;;;;;8.86;69.94;99815.94;211973;1329;139302;-58
2021/11/09 03:10:39;;;;;;;38.90;25.50;;;;;;;8.87;69.93;99828.43;211711;1328;138802;-58
2021/11/09 03:15:42;;;;;;;35.80;23.50;;;;;;;8.82;69.79;99835.90;211797;1329;138916;-58
2021/11/09 03:23:04;;;;;;;34.50;23.80;;;;;;;8.80;69.82;99847.50;211725;1333;139805;-58
2021/11/09 03:47:56;;;;;;;33.60;22.40;;;;;;;8.80;70.13;99863.63;212972;1319;138773;-59
2021/11/09 03:53:03;;;;;;;33.70;21.70;;;;;;;8.81;70.21;99870.84;212492;1325;139128;-57
2021/11/09 04:03:52;;;;;;;31.80;21.70;;;;;;;8.82;70.33;99875.36;212697;1326;139193;-56
2021/11/09 04:08:54;;;;;;;34.60;22.20;;;;;;;8.79;70.29;99883.27;213486;1319;138298;-57
2021/11/09 04:19:41;;;;;;;29.00;19.00;;;;;;;8.75;70.34;99875.98;213414;1320;139634;-58
2021/11/09 04:37:20;;;;;;;27.30;18.30;;;;;;;8.81;70.38;99892.03;211912;1326;138879;-58
2021/11/09 05:02:18;;;;;;;25.20;15.80;;;;;;;9.13;70.53;99920.27;213174;1320;139662;-60
2021/11/09 05:12:44;;;;;;;19.60;14.50;;;;;;;9.07;70.07;99932.75;212399;1327;139848;-59
2021/11/09 05:17:47;;;;;;;142.20;90.80;;;;;;;9.01;70.03;99939.69;213187;1323;139311;-59
2021/11/09 05:22:51;;;;;;;21.40;13.40;;;;;;;9.06;70.32;99946.75;213449;1322;139447;-59
2021/11/09 05:27:55;;;;;;;16.50;12.60;;;;;;;9.11;70.09;99957.16;213238;1323;139776;-60
2021/11/09 05:33:00;;;;;;;18.30;13.00;;;;;;;9.09;70.05;99959.58;212974;1320;139050;-61
2021/11/09 05:38:04;;;;;;;19.90;13.00;;;;;;;9.08;69.97;99966.17;213451;1320;138855;-60
2021/11/09 05:43:08;;;;;;;19.40;12.50;;;;;;;9.03;70.01;99972.75;213493;1319;139321;-59
2021/11/09 05:48:11;;;;;;;18.50;11.80;;;;;;;8.96;69.87;99982.20;213319;1320;138644;-58
2021/11/09 05:53:14;;;;;;;18.00;12.00;;;;;;;8.91;69.93;99996.41;212883;1319;139893;-59
2021/11/09 05:58:17;;;;;;;16.70;12.10;;;;;;;8.92;70.14;100010.52;213302;1320;139159;-57
2021/11/09 06:03:23;;;;;;;16.50;12.40;;;;;;;8.94;70.23;100015.21;212770;1323;138748;-58
2021/11/09 06:08:26;;;;;;;18.90;12.30;;;;;;;8.96;70.22;100029.63;212926;1322;139247;-61
2021/11/09 06:13:34;;;;;;;17.60;11.60;;;;;;;8.96;70.17;100037.44;212874;1320;139800;-62
2021/11/09 06:18:38;;;;;;;17.20;11.90;;;;;;;8.90;69.95;100047.39;213165;1322;139047;-61
2021/11/09 06:23:41;;;;;;;16.00;11.30;;;;;;;8.94;70.21;100058.05;212519;1326;141417;-60
2021/11/09 06:28:44;;;;;;;19.30;13.10;;;;;;;8.95;70.17;100064.74;212725;1323;139267;-61
2021/11/09 06:33:48;;;;;;;18.90;14.00;;;;;;;8.94;70.30;100079.79;212330;1320;139119;-62
2021/11/09 06:38:51;;;;;;;20.10;14.70;;;;;;;9.00;70.30;100096.04;212335;1326;139096;-61
2021/11/09 06:43:54;;;;;;;18.90;14.60;;;;;;;9.07;70.26;100110.30;212051;1328;138878;-63
2021/11/09 06:48:57;;;;;;;19.10;13.90;;;;;;;9.10;70.28;100122.55;212840;1323;138986;-62
2021/11/09 06:54:00;;;;;;;23.00;15.10;;;;;;;9.18;70.24;100134.83;212731;1322;140423;-60
2021/11/09 06:59:08;;;;;;;22.20;16.40;;;;;;;9.28;70.36;100149.48;212872;1320;140259;-59
2021/11/09 07:04:11;;;;;;;24.60;17.60;;;;;;;9.32;70.10;100164.20;212844;1319;140115;-60
2021/11/09 07:09:15;;;;;;;22.40;16.70;;;;;;;9.31;70.00;100174.69;212365;1327;139840;-61
2021/11/09 07:14:19;;;;;;;22.70;17.30;;;;;;;9.30;69.89;100181.81;212684;1323;229954;-60
2021/11/09 07:19:22;;;;;;;26.30;16.70;;;;;;;9.26;69.91;100189.23;213353;1319;139759;-61
2021/11/09 07:24:26;;;;;;;21.90;16.00;;;;;;;9.26;70.06;100192.98;212663;1319;139552;-60
2021/11/09 07:29:29;;;;;;;28.10;17.40;;;;;;;9.33;70.05;100198.35;212586;1322;140001;-60
2021/11/09 07:34:33;;;;;;;27.10;18.30;;;;;;;9.37;69.83;100205.63;213002;1323;140020;-62
2021/11/09 07:39:36;;;;;;;25.70;18.60;;;;;;;9.34;69.67;100210.73;212901;1319;139104;-62
2021/11/09 07:44:44;;;;;;;30.40;19.30;;;;;;;9.29;69.87;100215.53;212403;1328;138723;-60
2021/11/09 07:49:47;;;;;;;25.20;17.70;;;;;;;9.23;69.54;100222.25;212228;1329;139457;-60
2021/11/09 07:54:54;;;;;;;25.00;17.90;;;;;;;9.24;69.72;100236.95;212529;1321;140403;-60
2021/11/09 08:00:05;;;;;;;33.70;22.30;;;;;;;9.28;69.72;100241.03;212862;1326;139463;-61
2021/11/09 08:05:10;;;;;;;26.10;17.10;;;;;;;9.35;69.81;100244.88;213058;1323;140992;-62
2021/11/09 08:10:13;;;;;;;28.50;21.20;;;;;;;9.34;69.44;100253.02;212973;1319;138857;-61
2021/11/09 08:15:16;;;;;;;23.90;16.90;;;;;;;9.32;69.62;100255.77;212974;1320;138816;-62
2021/11/09 08:20:20;;;;;;;24.90;18.30;;;;;;;9.31;69.74;100268.75;212689;1322;139370;-61
2021/11/09 08:25:24;;;;;;;31.00;20.10;;;;;;;9.37;69.72;100277.54;212656;1319;139467;-60
2021/11/09 08:30:27;;;;;;;28.20;21.00;;;;;;;9.42;69.58;100288.32;213352;1319;139437;-61
2021/11/09 08:35:31;;;;;;;28.80;20.90;;;;;;;9.47;69.85;100291.86;212603;1322;138910;-61
2021/11/09 08:40:36;;;;;;;31.30;19.20;;;;;;;9.47;69.53;100295.93;213017;1326;139271;-58
2021/11/09 08:45:50;;;;;;;122.80;78.50;;;;;;;9.49;69.58;100308.28;212742;1323;139139;-60
2021/11/09 08:50:54;;;;;;;25.50;15.50;;;;;;;9.56;69.57;100316.51;212284;1318;140411;-61
2021/11/09 09:06:25;;;;;;;28.10;17.00;;;;;;;9.61;69.32;100345.56;212802;1319;139875;-59
2021/11/09 09:11:30;;;;;;;26.80;16.30;;;;;;;9.64;69.12;100356.10;212911;1326;138860;-60
2021/11/09 09:16:34;;;;;;;27.00;15.10;;;;;;;9.62;69.20;100357.04;212468;1327;139302;-59
2021/11/09 09:32:07;;;;;;;22.70;13.60;;;;;;;9.84;69.07;100362.25;213987;1319;139148;-61
2021/11/09 09:53:56;;;;;;;19.10;11.10;;;;;;;9.89;68.67;100390.24;212577;1328;139191;-58
2021/11/09 09:58:56;;;;;;;15.30;10.00;;;;;;;9.91;68.40;100390.86;212485;1323;139967;-57
2021/11/09 10:03:59;;;;;;;12.50;9.30;;;;;;;10.00;68.58;100396.94;212550;1318;139992;-59
2021/11/09 10:09:02;;;;;;;15.70;9.40;;;;;;;10.05;68.27;100393.18;212866;1320;139288;-59
2021/11/09 10:14:08;;;;;;;20.00;8.90;;;;;;;10.10;68.38;100397.98;212723;1319;139939;-59
2021/11/09 10:19:11;;;;;;;23.50;8.70;;;;;;;10.08;68.15;100402.80;212707;1320;139068;-59
2021/11/09 10:24:26;;;;;;;17.60;9.80;;;;;;;10.09;67.89;100410.03;212956;1323;140284;-59
2021/11/09 10:29:44;;;;;;;15.80;8.90;;;;;;;10.18;68.14;100417.88;212503;1322;139339;-58
2021/11/09 10:34:48;;;;;;;9.40;7.20;;;;;;;10.25;67.71;100423.48;212559;1327;138979;-57
2021/11/09 10:39:54;;;;;;;13.70;6.40;;;;;;;10.28;67.79;100427.63;213004;1322;139561;-58
2021/11/09 10:45:09;;;;;;;12.30;7.70;;;;;;;10.29;67.42;100437.88;213367;1320;139427;-59
2021/11/09 10:50:20;;;;;;;9.00;5.70;;;;;;;10.34;67.74;100441.23;213306;1320;140742;-59
2021/11/09 10:55:49;;;;;;;17.30;6.70;;;;;;;10.41;67.38;100447.87;212627;1326;139618;-59
2021/11/09 11:06:24;;;;;;;56.90;33.80;;;;;;;10.53;66.93;100460.89;210905;1336;138494;-58
2021/11/09 11:11:31;;;;;;;19.20;10.10;;;;;;;10.59;67.23;100467.75;211952;1320;197918;-57
2021/11/09 11:16:55;;;;;;;10.70;7.30;;;;;;;10.62;66.78;100470.83;213093;1322;139052;-57
2021/11/09 11:21:58;;;;;;;18.90;9.40;;;;;;;10.61;66.64;100472.64;212669;1323;138802;-57
2021/11/09 11:27:04;;;;;;;19.40;10.80;;;;;;;10.57;66.72;100477.08;212407;1329;138776;-60
2021/11/09 11:32:11;;;;;;;18.10;10.00;;;;;;;10.48;66.47;100480.44;212721;1325;139535;-59
2021/11/09 11:37:16;;;;;;;15.70;10.40;;;;;;;10.40;66.94;100474.54;212435;1325;139424;-60
2021/11/09 11:42:19;;;;;;;18.00;10.80;;;;;;;10.34;66.90;100479.36;212968;1325;139205;-59
2021/11/09 11:47:22;;;;;;;19.40;11.10;;;;;;;10.47;66.63;100480.30;212902;1322;138507;-58
2021/11/09 11:52:33;;;;;;;17.60;11.20;;;;;;;10.70;67.09;100481.55;212831;1322;139255;-60
2021/11/09 11:57:52;;;;;;;15.10;9.80;;;;;;;10.92;66.88;100476.58;212213;1330;138870;-58
2021/11/09 12:02:58;;;;;;;18.70;10.10;;;;;;;11.19;66.82;100480.60;212778;1322;139931;-59
2021/11/09 12:08:02;;;;;;;47.40;32.20;;;;;;;11.44;66.42;100480.08;212324;1328;139270;-59
2021/11/09 12:13:06;;;;;;;24.40;14.90;;;;;;;11.54;66.33;100478.94;212016;1330;139141;-57
2021/11/09 12:18:32;;;;;;;16.00;10.70;;;;;;;11.45;65.30;100489.11;212057;1329;138847;-61
2021/11/09 12:23:36;;;;;;;25.20;14.70;;;;;;;11.22;65.34;100486.88;212008;1330;138781;-59
2021/11/09 12:28:56;;;;;;;18.90;11.70;;;;;;;11.12;65.39;100489.98;212271;1322;138676;-61
2021/11/09 12:33:59;;;;;;;24.20;13.30;;;;;;;11.02;65.13;100491.42;212565;1329;139118;-59
2021/11/09 12:39:03;;;;;;;20.70;13.50;;;;;;;10.93;65.49;100500.30;212175;1328;139768;-59
2021/11/09 12:44:07;;;;;;;17.60;11.50;;;;;;;10.89;65.36;100504.04;212001;1331;139345;-59
2021/11/09 12:49:22;;;;;;;20.50;11.00;;;;;;;10.86;65.29;100505.92;212456;1322;139424;-59
2021/11/09 12:54:28;;;;;;;18.80;11.90;;;;;;;10.83;65.24;100507.99;212230;1324;139317;-60
2021/11/09 13:04:55;;;;;;;17.50;11.50;;;;;;;10.81;65.54;100506.85;211962;1329;139659;-59
2021/11/09 13:10:20;;;;;;;11.90;7.30;;;;;;;10.83;65.45;100505.69;211708;1332;140475;-60
2021/11/09 13:15:23;;;;;;;12.40;7.10;;;;;;;10.84;65.33;100512.04;212089;1325;138484;-58
2021/11/09 13:25:34;;;;;;;;;;;;;;;10.78;65.23;100508.91;212175;1329;138924;-59
2021/11/09 13:30:38;;;;;;;13.00;9.70;;;;;;;10.73;65.55;100514.59;212329;1329;125988;-59
2021/11/09 13:35:45;;;;;;;11.30;8.00;;;;;;;10.70;65.48;100520.24;212571;1322;138894;-58
2021/11/09 13:40:52;;;;;;;12.00;7.70;;;;;;;10.68;65.50;100516.95;212254;1323;139734;-58
2021/11/09 13:46:01;;;;;;;116.70;85.00;;;;;;;10.71;65.81;100517.71;212000;1331;139681;-58
2021/11/09 13:51:10;;;;;;;17.30;9.10;;;;;;;10.81;65.96;100525.30;212082;1329;140721;-58
2021/11/09 13:56:23;;;;;;;13.10;8.30;;;;;;;10.86;65.96;100533.44;212645;1329;139279;-59
2021/11/09 14:17:41;;;;;;;386.10;291.20;;;;;;;10.69;65.83;100546.02;212098;1329;139238;-59
2021/11/09 14:22:46;;;;;;;19.70;11.70;;;;;;;10.70;66.29;100555.02;212164;1331;140131;-59
2021/11/09 14:27:49;;;;;;;15.10;8.70;;;;;;;10.83;66.36;100555.05;211981;1332;140075;-59
2021/11/09 14:33:21;;;;;;;14.70;8.80;;;;;;;10.82;65.76;100562.72;212121;1331;140504;-60
2021/11/09 14:38:27;;;;;;;21.00;11.90;;;;;;;10.78;65.72;100555.61;212495;1328;138983;-58
2021/11/09 14:43:38;;;;;;;17.80;12.20;;;;;;;10.73;65.61;100550.82;212461;1329;139485;-59
2021/11/09 14:58:57;;;;;;;293.10;178.40;;;;;;;10.62;66.03;100561.52;212494;1329;139154;-60
2021/11/09 15:04:21;;;;;;;19.90;10.60;;;;;;;10.77;66.43;100567.72;211840;1330;139671;-59
2021/11/09 15:30:18;;;;;;;23.70;12.50;;;;;;;10.77;65.88;100579.06;212244;1329;138979;-58
2021/11/09 15:35:27;;;;;;;27.20;13.70;;;;;;;10.77;66.06;100583.71;212349;1332;139719;-59
2021/11/09 15:40:30;;;;;;;26.60;14.50;;;;;;;10.65;65.49;100587.86;212308;1331;139787;-57
2021/11/09 15:45:33;;;;;;;28.60;13.00;;;;;;;10.56;65.73;100593.35;212203;1329;139026;-58
2021/11/09 15:50:37;;;;;;;175.00;127.50;;;;;;;10.47;65.71;100591.55;212389;1327;139912;-59
2021/11/09 15:55:41;;;;;;;22.30;13.80;;;;;;;10.50;66.21;100584.54;212568;1324;139566;-56
2021/11/09 16:00:46;;;;;;;15.70;9.80;;;;;;;10.54;65.97;100583.15;212347;1331;139005;-58
2021/11/09 16:05:52;;;;;;;15.20;9.90;;;;;;;10.49;65.78;100589.33;211791;1322;139432;-60
2021/11/09 16:10:56;;;;;;;204.60;157.80;;;;;;;10.40;65.66;100595.52;212004;1330;150133;-58
2021/11/09 16:16:05;;;;;;;23.20;15.80;;;;;;;10.46;65.89;100597.45;212460;1324;140006;-56
2021/11/09 16:21:10;;;;;;;23.70;14.30;;;;;;;10.44;65.83;100600.52;212649;1328;139226;-58
2021/11/09 16:26:13;;;;;;;31.40;15.30;;;;;;;10.38;66.00;100609.10;212100;1325;139598;-59
2021/11/09 16:31:17;;;;;;;24.70;14.50;;;;;;;10.32;66.00;100618.89;212261;1326;139348;-58
2021/11/09 16:36:22;;;;;;;21.80;12.90;;;;;;;10.23;65.61;100626.27;212465;1330;139324;-59
2021/11/09 16:41:28;;;;;;;23.10;11.00;;;;;;;10.19;65.62;100629.58;211926;1331;140629;-56
2021/11/09 16:51:40;;;;;;;18.20;11.50;;;;;;;10.21;65.82;100632.04;212863;1322;138959;-55
2021/11/09 16:56:56;;;;;;;21.80;13.40;;;;;;;10.15;65.43;100638.41;212708;1329;138725;-58
2021/11/09 18:22:49;;;;;;;22.90;14.60;;;;;;;8.65;66.08;100683.84;212435;1326;138980;-59
2021/11/09 18:27:55;;;;;;;217.90;158.30;;;;;;;8.68;66.64;100697.37;212033;1326;138920;-56
2021/11/09 18:33:00;;;;;;;25.30;17.10;;;;;;;8.84;66.89;100703.13;212151;1323;139155;-59
2021/11/09 18:38:04;;;;;;;25.30;17.70;;;;;;;8.82;66.37;100708.68;212227;1322;139956;-58
2021/11/09 18:43:10;;;;;;;21.50;16.00;;;;;;;8.70;66.13;100706.52;211961;1331;140481;-57
2021/11/09 18:48:14;;;;;;;;;;;;;;;8.51;66.07;100703.48;212784;1325;138454;-58
2021/11/09 18:53:20;;;;;;;25.80;17.80;;;;;;;8.33;66.05;100710.84;212796;1325;125103;-58
2021/11/09 18:58:24;;;;;;;23.70;16.50;;;;;;;8.16;66.11;100708.61;212023;1326;138376;-58
2021/11/09 19:03:27;;;;;;;27.70;16.60;;;;;;;8.09;66.37;100706.87;212187;1329;139400;-59
2021/11/09 19:08:30;;;;;;;30.40;17.20;;;;;;;8.09;66.55;100711.81;212577;1323;140247;-57
2021/11/09 19:13:33;;;;;;;24.20;18.10;;;;;;;8.05;66.60;100711.70;212084;1325;184165;-57
2021/11/09 19:18:36;;;;;;;31.00;18.10;;;;;;;7.99;66.44;100715.05;212072;1329;138859;-57
2021/11/09 19:23:40;;;;;;;30.70;19.30;;;;;;;7.92;66.47;100713.28;212395;1326;139187;-57
2021/11/09 19:28:44;;;;;;;29.80;19.40;;;;;;;7.84;66.53;100724.05;211979;1327;138771;-57
2021/11/09 19:33:47;;;;;;;34.00;19.30;;;;;;;7.72;66.58;100731.60;212152;1330;140249;-59
2021/11/09 19:38:51;;;;;;;30.50;20.20;;;;;;;7.59;66.63;100741.25;212352;1327;139640;-60
2021/11/09 19:44:06;;;;;;;33.30;20.20;;;;;;;7.49;66.72;100748.02;212030;1329;138685;-60
2021/11/09 19:49:13;;;;;;;32.80;21.30;;;;;;;7.44;66.65;100752.35;211964;1326;139766;-61
2021/11/09 19:54:20;;;;;;;33.10;22.50;;;;;;;7.44;66.85;100757.84;212078;1330;139725;-58
2021/11/09 19:59:24;;;;;;;31.10;22.00;;;;;;;7.44;67.01;100758.54;212167;1325;139617;-58
2021/11/09 20:04:27;;;;;;;37.60;21.90;;;;;;;7.42;66.98;100758.77;212577;1329;138681;-59
2021/11/09 20:09:31;;;;;;;34.00;23.60;;;;;;;7.34;66.76;100763.15;212777;1323;139237;-58
2021/11/09 20:14:38;;;;;;;39.80;25.40;;;;;;;7.25;66.76;100760.16;212359;1323;139191;-59
2021/11/09 20:19:43;;;;;;;40.90;26.20;;;;;;;7.17;66.77;100767.56;212076;1327;138823;-60
2021/11/09 20:24:47;;;;;;;39.60;25.30;;;;;;;7.11;66.97;100767.34;212296;1326;139691;-59
2021/11/09 20:29:50;;;;;;;48.30;29.40;;;;;;;7.02;66.99;100767.52;212802;1323;139905;-57
2021/11/09 20:34:56;;;;;;;55.90;29.70;;;;;;;6.99;67.40;100770.92;212036;1330;138902;-59
2021/11/09 20:40:04;;;;;;;55.20;31.80;;;;;;;7.05;67.61;100770.45;212825;1322;139047;-58
2021/11/09 20:45:08;;;;;;;67.40;31.00;;;;;;;7.10;67.82;100771.42;212345;1322;140689;-57
2021/11/09 20:50:15;;;;;;;52.60;22.80;;;;;;;7.13;68.15;100771.36;212891;1323;138741;-59
2021/11/09 20:55:20;;;;;;;89.20;33.10;;;;;;;7.11;67.89;100771.39;212522;1326;139182;-57
2021/11/09 21:00:24;;;;;;;61.60;33.60;;;;;;;7.05;67.85;100772.75;212284;1323;138980;-59
2021/11/09 21:05:32;;;;;;;57.20;31.60;;;;;;;7.02;67.87;100769.63;212363;1325;140220;-60
2021/11/09 21:10:37;;;;;;;49.60;31.80;;;;;;;6.98;68.00;100758.96;212332;1323;139096;-58
2021/11/09 21:21:10;;;;;;;58.00;34.70;;;;;;;6.96;67.96;100757.92;213302;1322;139430;-58
2021/11/09 21:26:22;;;;;;;58.70;34.60;;;;;;;6.96;68.18;100763.23;213213;1323;142050;-58
2021/11/09 21:36:28;;;;;;;52.30;32.90;;;;;;;6.95;68.42;100756.73;212504;1326;139027;-60
2021/11/09 21:41:32;;;;;;;58.90;34.80;;;;;;;6.94;68.30;100759.56;212206;1323;139385;-57
2021/11/09 21:46:35;;;;;;;71.10;35.20;;;;;;;6.87;68.20;100755.29;212448;1326;139175;-57
2021/11/09 21:51:38;;;;;;;58.80;34.30;;;;;;;6.79;68.01;100751.73;212185;1322;138661;-59
2021/11/09 21:56:42;;;;;;;51.50;32.90;;;;;;;6.75;68.10;100750.04;212786;1322;139027;-58
2021/11/09 22:01:46;;;;;;;53.30;32.40;;;;;;;6.73;68.19;100738.25;212595;1327;140211;-60
2021/11/09 22:06:49;;;;;;;48.40;30.90;;;;;;;6.72;68.17;100726.46;212385;1327;138780;-60
2021/11/09 22:11:52;;;;;;;50.70;31.40;;;;;;;6.72;68.26;100710.08;212455;1326;140167;-57
2021/11/09 22:16:57;;;;;;;50.00;29.70;;;;;;;6.66;68.06;100715.64;212726;1326;139610;-59
2021/11/09 22:22:00;;;;;;;72.20;30.50;;;;;;;6.55;67.71;100720.09;213020;1320;138751;-58
2021/11/09 22:27:03;;;;;;;62.50;30.20;;;;;;;6.44;67.74;100715.35;212777;1319;139225;-60
2021/11/09 22:32:11;;;;;;;50.70;31.00;;;;;;;6.32;67.74;100713.10;213024;1319;143009;-57
2021/11/09 22:37:14;;;;;;;46.80;28.80;;;;;;;6.21;67.62;100702.73;212696;1326;139178;-59
2021/11/09 22:42:18;;;;;;;48.20;28.60;;;;;;;6.15;68.04;100694.71;213098;1319;139659;-59
2021/11/09 22:47:21;;;;;;;44.60;28.60;;;;;;;6.14;68.17;100683.09;212946;1322;139414;-60
2021/11/09 22:52:24;;;;;;;49.70;30.70;;;;;;;6.16;68.23;100683.95;212171;1325;139462;-58
2021/11/09 22:57:27;;;;;;;49.50;30.80;;;;;;;6.15;67.90;100677.80;212285;1325;139993;-59
2021/11/09 23:02:30;;;;;;;48.90;30.80;;;;;;;6.10;68.15;100664.67;213621;1321;139432;-61
2021/11/09 23:07:33;;;;;;;52.30;31.00;;;;;;;6.05;67.88;100660.70;212933;1326;138517;-55
2021/11/09 23:12:37;;;;;;;54.10;31.90;;;;;;;6.01;68.13;100649.15;213662;1323;139619;-58
2021/11/09 23:17:42;;;;;;;53.60;30.00;;;;;;;5.98;68.28;100650.06;213109;1325;138334;-58
2021/11/09 23:22:46;;;;;;;47.20;28.50;;;;;;;5.97;68.51;100633.88;212072;1329;139296;-56
2021/11/09 23:27:51;;;;;;;45.60;26.60;;;;;;;6.01;68.53;100633.64;212964;1324;139727;-59
2021/11/09 23:32:56;;;;;;;45.40;27.10;;;;;;;6.04;68.19;100636.93;212824;1326;139325;-61
2021/11/09 23:37:59;;;;;;;42.70;25.70;;;;;;;6.05;68.40;100618.06;212976;1320;138767;-60
2021/11/09 23:43:03;;;;;;;39.00;24.30;;;;;;;6.06;68.31;100607.11;212876;1325;139865;-59
2021/11/09 23:48:06;;;;;;;41.20;25.80;;;;;;;6.04;68.00;100607.70;212827;1320;139189;-59
2021/11/09 23:53:09;;;;;;;47.50;25.70;;;;;;;5.98;68.19;100610.09;212479;1322;140210;-57
2021/11/09 23:58:12;;;;;;;46.70;25.00;;;;;;;5.89;68.06;100610.55;213160;1323;139075;-58
